sensor_id;sensor_type;location;lat;lon;timestamp;P1;durP1;ratioP1;P2;durP2;ratioP2
7585;SDS011;12459;42.646;23.292;2023-03-23T00:17:25;6.57;;;6.17;;
7585;SDS011;12459;42.646;23.292;2023-03-23T00:32:25;5.50;;;5.10;;
7585;SDS011;12459;42.646;23.292;2023-03-23T00:47:30;5.00;;;4.70;;
7585;SDS011;12459;42.646;23.292;2023-03-23T01:02:30;5.45;;;5.07;;
7585;SDS011;12459;42.646;23.292;2023-03-23T01:17:31;6.18;;;5.78;;
7585;SDS011;12459;42.646;23.292;2023-03-23T01:32:32;6.28;;;5.88;;
7585;SDS011;12459;42.646;23.292;2023-03-23T01:47:33;6.23;;;5.83;;
7585;SDS011;12459;42.646;23.292;2023-03-23T02:02:33;6.25;;;5.85;;
7585;SDS011;12459;42.646;23.292;2023-03-23T02:17:45;7.00;;;6.60;;
7585;SDS011;12459;42.646;23.292;2023-03-23T02:48:17;6.67;;;6.27;;
7585;SDS011;12459;42.646;23.292;2023-03-23T03:03:21;6.57;;;6.17;;
7585;SDS011;12459;42.646;23.292;2023-03-23T03:18:28;6.87;;;6.47;;
7585;SDS011;12459;42.646;23.292;2023-03-23T03:33:39;6.57;;;6.17;;
7585;SDS011;12459;42.646;23.292;2023-03-23T03:48:40;6.10;;;5.70;;
7585;SDS011;12459;42.646;23.292;2023-03-23T04:03:40;5.75;;;5.35;;
7585;SDS011;12459;42.646;23.292;2023-03-23T04:18:41;6.00;;;5.60;;
7585;SDS011;12459;42.646;23.292;2023-03-23T04:33:42;5.50;;;5.10;;
7585;SDS011;12459;42.646;23.292;2023-03-23T04:48:43;5.72;;;5.32;;
7585;SDS011;12459;42.646;23.292;2023-03-23T05:03:44;5.27;;;4.90;;
7585;SDS011;12459;42.646;23.292;2023-03-23T05:18:45;5.78;;;5.38;;
7585;SDS011;12459;42.646;23.292;2023-03-23T05:33:46;6.63;;;6.23;;
7585;SDS011;12459;42.646;23.292;2023-03-23T05:48:47;6.00;;;5.60;;
7585;SDS011;12459;42.646;23.292;2023-03-23T06:03:47;6.32;;;5.93;;
7585;SDS011;12459;42.646;23.292;2023-03-23T06:18:51;7.10;;;6.70;;
7585;SDS011;12459;42.646;23.292;2023-03-23T06:33:51;7.00;;;6.60;;
7585;SDS011;12459;42.646;23.292;2023-03-23T06:48:52;8.82;;;8.32;;
7585;SDS011;12459;42.646;23.292;2023-03-23T07:03:53;6.67;;;6.27;;
7585;SDS011;12459;42.646;23.292;2023-03-23T07:18:55;6.90;;;6.50;;
7585;SDS011;12459;42.646;23.292;2023-03-23T07:33:56;8.50;;;8.00;;
7585;SDS011;12459;42.646;23.292;2023-03-23T07:48:57;8.85;;;8.35;;
7585;SDS011;12459;42.646;23.292;2023-03-23T08:03:58;11.47;;;10.87;;
7585;SDS011;12459;42.646;23.292;2023-03-23T08:18:59;13.57;;;12.87;;
7585;SDS011;12459;42.646;23.292;2023-03-23T08:34:01;13.13;;;12.43;;
7585;SDS011;12459;42.646;23.292;2023-03-23T08:49:02;11.57;;;10.97;;
7585;SDS011;12459;42.646;23.292;2023-03-23T09:04:02;16.15;;;15.35;;
7585;SDS011;12459;42.646;23.292;2023-03-23T09:19:04;12.10;;;11.50;;
7585;SDS011;12459;42.646;23.292;2023-03-23T09:34:05;15.53;;;14.73;;
7585;SDS011;12459;42.646;23.292;2023-03-23T09:49:23;17.40;;;16.50;;
7585;SDS011;12459;42.646;23.292;2023-03-23T10:04:31;18.80;;;17.90;;
7585;SDS011;12459;42.646;23.292;2023-03-23T10:20:04;13.97;;;13.27;;
7585;SDS011;12459;42.646;23.292;2023-03-23T10:35:17;14.10;;;13.40;;
7585;SDS011;12459;42.646;23.292;2023-03-23T10:50:32;14.00;;;13.30;;
7585;SDS011;12459;42.646;23.292;2023-03-23T11:20:39;15.03;;;14.23;;
7585;SDS011;12459;42.646;23.292;2023-03-23T11:35:43;24.00;;;22.90;;
7585;SDS011;12459;42.646;23.292;2023-03-23T12:06:08;22.27;;;21.17;;
7585;SDS011;12459;42.646;23.292;2023-03-23T12:36:29;23.73;;;22.60;;
7585;SDS011;12459;42.646;23.292;2023-03-23T13:07:24;23.30;;;22.20;;
7585;SDS011;12459;42.646;23.292;2023-03-23T13:37:35;21.43;;;20.43;;
7585;SDS011;12459;42.646;23.292;2023-03-23T13:52:58;22.30;;;21.20;;
7585;SDS011;12459;42.646;23.292;2023-03-23T14:08:02;20.37;;;19.37;;
7585;SDS011;12459;42.646;23.292;2023-03-23T14:23:14;18.47;;;17.57;;
7585;SDS011;12459;42.646;23.292;2023-03-23T14:38:20;20.90;;;19.90;;
7585;SDS011;12459;42.646;23.292;2023-03-23T14:53:26;22.60;;;21.50;;
7585;SDS011;12459;42.646;23.292;2023-03-23T15:08:32;15.83;;;15.03;;
7585;SDS011;12459;42.646;23.292;2023-03-23T15:23:34;22.30;;;21.20;;
7585;SDS011;12459;42.646;23.292;2023-03-23T15:38:45;21.90;;;20.80;;
7585;SDS011;12459;42.646;23.292;2023-03-23T15:53:47;21.43;;;20.37;;
7585;SDS011;12459;42.646;23.292;2023-03-23T16:08:50;17.40;;;16.50;;
7585;SDS011;12459;42.646;23.292;2023-03-23T16:23:55;19.23;;;18.30;;
7585;SDS011;12459;42.646;23.292;2023-03-23T16:38:57;19.07;;;18.13;;
7585;SDS011;12459;42.646;23.292;2023-03-23T16:53:59;15.43;;;14.63;;
7585;SDS011;12459;42.646;23.292;2023-03-23T17:09:01;17.33;;;16.43;;
7585;SDS011;12459;42.646;23.292;2023-03-23T17:24:03;16.87;;;16.07;;
7585;SDS011;12459;42.646;23.292;2023-03-23T17:39:05;17.17;;;16.30;;
7585;SDS011;12459;42.646;23.292;2023-03-23T17:54:07;15.70;;;14.90;;
7585;SDS011;12459;42.646;23.292;2023-03-23T18:09:09;12.73;;;12.03;;
7585;SDS011;12459;42.646;23.292;2023-03-23T18:24:11;11.23;;;10.63;;
7585;SDS011;12459;42.646;23.292;2023-03-23T18:39:13;12.43;;;11.73;;
7585;SDS011;12459;42.646;23.292;2023-03-23T18:54:16;9.67;;;9.13;;
7585;SDS011;12459;42.646;23.292;2023-03-23T19:09:17;13.10;;;12.40;;
7585;SDS011;12459;42.646;23.292;2023-03-23T19:24:19;9.87;;;9.37;;
7585;SDS011;12459;42.646;23.292;2023-03-23T19:39:21;15.93;;;15.13;;
7585;SDS011;12459;42.646;23.292;2023-03-23T19:54:23;10.50;;;9.90;;
7585;SDS011;12459;42.646;23.292;2023-03-23T20:09:25;12.90;;;12.20;;
7585;SDS011;12459;42.646;23.292;2023-03-23T20:24:27;9.37;;;8.87;;
7585;SDS011;12459;42.646;23.292;2023-03-23T20:39:30;8.80;;;8.30;;
7585;SDS011;12459;42.646;23.292;2023-03-23T20:54:33;11.27;;;10.67;;
7585;SDS011;12459;42.646;23.292;2023-03-23T21:09:35;10.00;;;9.43;;
7585;SDS011;12459;42.646;23.292;2023-03-23T21:24:37;7.40;;;6.97;;
7585;SDS011;12459;42.646;23.292;2023-03-23T21:39:39;7.83;;;7.33;;
7585;SDS011;12459;42.646;23.292;2023-03-23T21:54:41;8.00;;;7.50;;
7585;SDS011;12459;42.646;23.292;2023-03-23T22:09:43;7.97;;;7.47;;
7585;SDS011;12459;42.646;23.292;2023-03-23T22:24:45;7.87;;;7.37;;
7585;SDS011;12459;42.646;23.292;2023-03-23T22:39:47;7.60;;;7.17;;
7585;SDS011;12459;42.646;23.292;2023-03-23T22:54:49;8.67;;;8.17;;
7585;SDS011;12459;42.646;23.292;2023-03-23T23:09:51;9.33;;;8.83;;
7585;SDS011;12459;42.646;23.292;2023-03-23T23:24:53;8.50;;;8.00;;
7585;SDS011;12459;42.646;23.292;2023-03-23T23:39:55;6.33;;;5.93;;
7585;SDS011;12459;42.646;23.292;2023-03-23T23:54:56;8.17;;;7.67;;
